sensor_id;sensor_type;location;lat;lon;timestamp;pressure;altitude;pressure_sealevel;temperature;humidity
74675;BME280;63200;48.810;12.352;2023-02-01T00:01:26;97934.69;;;1.98;73.66
74675;BME280;63200;48.810;12.352;2023-02-01T00:03:51;97917.78;;;1.98;73.79
74675;BME280;63200;48.810;12.352;2023-02-01T00:06:16;97910.25;;;1.88;74.82
74675;BME280;63200;48.810;12.352;2023-02-01T00:08:41;97924.56;;;2.00;73.98
74675;BME280;63200;48.810;12.352;2023-02-01T00:11:09;97876.53;;;1.80;73.02
74675;BME280;63200;48.810;12.352;2023-02-01T00:13:37;97912.16;;;2.06;72.98
74675;BME280;63200;48.810;12.352;2023-02-01T00:16:07;97915.00;;;2.11;73.42
74675;BME280;63200;48.810;12.352;2023-02-01T00:18:33;97877.66;;;1.91;73.17
74675;BME280;63200;48.810;12.352;2023-02-01T00:20:58;97903.25;;;2.12;73.21
74675;BME280;63200;48.810;12.352;2023-02-01T00:23:24;97908.22;;;2.09;73.06
74675;BME280;63200;48.810;12.352;2023-02-01T00:25:49;97882.31;;;2.03;72.62
74675;BME280;63200;48.810;12.352;2023-02-01T00:28:14;97888.97;;;2.19;72.56
74675;BME280;63200;48.810;12.352;2023-02-01T00:30:40;97897.59;;;2.21;73.22
74675;BME280;63200;48.810;12.352;2023-02-01T00:33:05;97908.09;;;2.22;72.96
74675;BME280;63200;48.810;12.352;2023-02-01T00:35:31;97910.56;;;2.24;72.63
74675;BME280;63200;48.810;12.352;2023-02-01T00:37:56;97911.38;;;2.24;73.42
74675;BME280;63200;48.810;12.352;2023-02-01T00:40:24;97905.28;;;2.17;73.33
74675;BME280;63200;48.810;12.352;2023-02-01T00:42:49;97906.53;;;2.14;74.28
74675;BME280;63200;48.810;12.352;2023-02-01T00:45:14;97896.25;;;2.11;73.66
74675;BME280;63200;48.810;12.352;2023-02-01T00:47:40;97889.25;;;2.10;73.67
74675;BME280;63200;48.810;12.352;2023-02-01T00:50:05;97828.56;;;1.79;73.82
74675;BME280;63200;48.810;12.352;2023-02-01T00:52:31;97888.44;;;2.10;73.26
74675;BME280;63200;48.810;12.352;2023-02-01T00:54:56;97885.97;;;2.08;74.22
74675;BME280;63200;48.810;12.352;2023-02-01T00:57:21;97883.69;;;2.12;73.73
74675;BME280;63200;48.810;12.352;2023-02-01T00:59:46;97885.75;;;2.10;74.33
74675;BME280;63200;48.810;12.352;2023-02-01T01:02:12;97871.97;;;2.06;74.36
74675;BME280;63200;48.810;12.352;2023-02-01T01:04:39;97872.28;;;2.16;73.57
74675;BME280;63200;48.810;12.352;2023-02-01T01:07:04;97883.19;;;2.22;73.73
74675;BME280;63200;48.810;12.352;2023-02-01T01:09:30;97859.13;;;2.15;73.46
74675;BME280;63200;48.810;12.352;2023-02-01T01:11:55;97877.97;;;2.27;73.46
74675;BME280;63200;48.810;12.352;2023-02-01T01:14:20;97871.69;;;2.40;72.57
74675;BME280;63200;48.810;12.352;2023-02-01T01:16:46;97876.19;;;2.39;72.25
74675;BME280;63200;48.810;12.352;2023-02-01T01:19:11;97880.75;;;2.39;73.15
74675;BME280;63200;48.810;12.352;2023-02-01T01:21:36;97874.59;;;2.38;73.18
74675;BME280;63200;48.810;12.352;2023-02-01T01:24:02;97875.78;;;2.42;72.53
74675;BME280;63200;48.810;12.352;2023-02-01T01:26:28;97890.13;;;2.48;72.38
74675;BME280;63200;48.810;12.352;2023-02-01T01:28:58;97877.69;;;2.54;72.41
74675;BME280;63200;48.810;12.352;2023-02-01T01:31:24;97882.25;;;2.53;72.26
74675;BME280;63200;48.810;12.352;2023-02-01T01:33:52;97871.31;;;2.55;71.53
74675;BME280;63200;48.810;12.352;2023-02-01T01:36:18;97871.16;;;2.49;72.45
74675;BME280;63200;48.810;12.352;2023-02-01T01:38:43;97870.75;;;2.46;73.06
74675;BME280;63200;48.810;12.352;2023-02-01T01:41:14;97827.44;;;2.12;72.28
74675;BME280;63200;48.810;12.352;2023-02-01T01:46:23;97875.63;;;2.56;71.89
74675;BME280;63200;48.810;12.352;2023-02-01T01:48:53;97872.72;;;2.57;71.86
74675;BME280;63200;48.810;12.352;2023-02-01T01:51:23;97876.22;;;2.58;71.68
74675;BME280;63200;48.810;12.352;2023-02-01T01:54:00;97827.22;;;2.32;71.77
74675;BME280;63200;48.810;12.352;2023-02-01T01:56:28;97862.81;;;2.58;71.76
74675;BME280;63200;48.810;12.352;2023-02-01T01:58:55;97856.63;;;2.57;71.77
74675;BME280;63200;48.810;12.352;2023-02-01T02:01:20;97853.56;;;2.54;71.71
74675;BME280;63200;48.810;12.352;2023-02-01T02:03:46;97829.59;;;2.40;72.01
74675;BME280;63200;48.810;12.352;2023-02-01T02:09:04;97845.91;;;2.57;72.17
74675;BME280;63200;48.810;12.352;2023-02-01T02:11:29;97846.50;;;2.59;72.54
74675;BME280;63200;48.810;12.352;2023-02-01T02:13:56;97837.19;;;2.62;72.34
74675;BME280;63200;48.810;12.352;2023-02-01T02:16:39;97803.28;;;2.37;72.16
74675;BME280;63200;48.810;12.352;2023-02-01T02:36:13;97842.56;;;2.62;72.89
74675;BME280;63200;48.810;12.352;2023-02-01T02:41:32;97840.47;;;2.64;72.76
74675;BME280;63200;48.810;12.352;2023-02-01T02:44:45;97821.25;;;2.67;72.15
74675;BME280;63200;48.810;12.352;2023-02-01T02:47:37;97819.84;;;2.64;73.21
74675;BME280;63200;48.810;12.352;2023-02-01T02:53:15;97806.28;;;2.59;73.40
74675;BME280;63200;48.810;12.352;2023-02-01T02:56:01;97811.59;;;2.66;72.63
74675;BME280;63200;48.810;12.352;2023-02-01T02:58:48;97810.75;;;2.65;72.67
74675;BME280;63200;48.810;12.352;2023-02-01T03:01:32;97800.88;;;2.66;72.87
74675;BME280;63200;48.810;12.352;2023-02-01T03:04:16;97798.19;;;2.66;72.12
74675;BME280;63200;48.810;12.352;2023-02-01T03:06:43;97812.78;;;2.70;73.41
74675;BME280;63200;48.810;12.352;2023-02-01T03:09:33;97818.38;;;2.69;72.68
74675;BME280;63200;48.810;12.352;2023-02-01T03:12:04;97820.00;;;2.70;72.99
74675;BME280;63200;48.810;12.352;2023-02-01T03:14:54;97815.69;;;2.69;73.01
74675;BME280;63200;48.810;12.352;2023-02-01T03:17:29;97810.75;;;2.65;72.93
74675;BME280;63200;48.810;12.352;2023-02-01T03:19:59;97808.91;;;2.66;73.06
74675;BME280;63200;48.810;12.352;2023-02-01T03:22:27;97803.09;;;2.69;72.97
74675;BME280;63200;48.810;12.352;2023-02-01T03:25:00;97800.41;;;2.69;72.76
74675;BME280;63200;48.810;12.352;2023-02-01T03:27:31;97772.00;;;2.49;73.04
74675;BME280;63200;48.810;12.352;2023-02-01T03:30:06;97813.22;;;2.67;73.32
74675;BME280;63200;48.810;12.352;2023-02-01T03:32:34;97814.06;;;2.67;72.64
74675;BME280;63200;48.810;12.352;2023-02-01T03:35:32;97807.84;;;2.67;72.60
74675;BME280;63200;48.810;12.352;2023-02-01T03:40:51;97757.78;;;2.49;72.47
74675;BME280;63200;48.810;12.352;2023-02-01T03:43:18;97829.00;;;2.75;71.80
74675;BME280;63200;48.810;12.352;2023-02-01T03:45:51;97805.31;;;2.72;72.72
74675;BME280;63200;48.810;12.352;2023-02-01T03:48:18;97797.03;;;2.74;72.51
74675;BME280;63200;48.810;12.352;2023-02-01T03:50:49;97794.00;;;2.70;72.87
74675;BME280;63200;48.810;12.352;2023-02-01T03:53:18;97783.72;;;2.67;72.11
74675;BME280;63200;48.810;12.352;2023-02-01T03:55:46;97787.81;;;2.70;72.28
74675;BME280;63200;48.810;12.352;2023-02-01T03:58:13;97792.94;;;2.71;71.92
74675;BME280;63200;48.810;12.352;2023-02-01T04:00:39;97760.22;;;2.50;72.14
74675;BME280;63200;48.810;12.352;2023-02-01T04:03:06;97787.31;;;2.61;73.00
74675;BME280;63200;48.810;12.352;2023-02-01T04:05:32;97761.03;;;2.51;72.47
74675;BME280;63200;48.810;12.352;2023-02-01T04:07:58;97786.25;;;2.62;72.79
74675;BME280;63200;48.810;12.352;2023-02-01T04:10:23;97743.06;;;2.40;71.94
74675;BME280;63200;48.810;12.352;2023-02-01T04:12:49;97773.00;;;2.67;71.97
74675;BME280;63200;48.810;12.352;2023-02-01T04:15:14;97776.81;;;2.59;72.64
74675;BME280;63200;48.810;12.352;2023-02-01T04:17:39;97779.38;;;2.54;72.81
74675;BME280;63200;48.810;12.352;2023-02-01T04:20:05;97778.31;;;2.55;72.41
74675;BME280;63200;48.810;12.352;2023-02-01T04:22:31;97778.31;;;2.55;72.38
74675;BME280;63200;48.810;12.352;2023-02-01T04:24:56;97789.47;;;2.52;72.30
74675;BME280;63200;48.810;12.352;2023-02-01T04:27:21;97773.88;;;2.49;72.57
74675;BME280;63200;48.810;12.352;2023-02-01T04:29:47;97775.94;;;2.47;72.75
74675;BME280;63200;48.810;12.352;2023-02-01T04:32:15;97751.38;;;2.31;72.49
74675;BME280;63200;48.810;12.352;2023-02-01T04:34:41;97782.13;;;2.47;73.04
74675;BME280;63200;48.810;12.352;2023-02-01T04:37:06;97773.34;;;2.40;72.17
74675;BME280;63200;48.810;12.352;2023-02-01T04:39:32;97736.44;;;2.24;72.05
74675;BME280;63200;48.810;12.352;2023-02-01T04:41:57;97779.00;;;2.50;71.78
74675;BME280;63200;48.810;12.352;2023-02-01T04:44:23;97764.63;;;2.45;72.46
74675;BME280;63200;48.810;12.352;2023-02-01T04:46:48;97759.41;;;2.50;72.38
74675;BME280;63200;48.810;12.352;2023-02-01T04:49:13;97767.66;;;2.48;72.19
74675;BME280;63200;48.810;12.352;2023-02-01T04:51:40;97759.84;;;2.47;71.63
74675;BME280;63200;48.810;12.352;2023-02-01T04:54:05;97779.56;;;2.53;72.12
74675;BME280;63200;48.810;12.352;2023-02-01T04:56:31;97779.44;;;2.47;72.38
74675;BME280;63200;48.810;12.352;2023-02-01T04:58:56;97770.56;;;2.47;72.75
74675;BME280;63200;48.810;12.352;2023-02-01T05:01:22;97773.88;;;2.49;72.28
74675;BME280;63200;48.810;12.352;2023-02-01T05:03:49;97721.97;;;2.25;72.25
74675;BME280;63200;48.810;12.352;2023-02-01T05:06:15;97761.50;;;2.48;72.39
74675;BME280;63200;48.810;12.352;2023-02-01T05:08:40;97758.81;;;2.48;72.18
74675;BME280;63200;48.810;12.352;2023-02-01T05:11:05;97754.72;;;2.45;72.50
74675;BME280;63200;48.810;12.352;2023-02-01T05:13:31;97758.81;;;2.48;71.87
74675;BME280;63200;48.810;12.352;2023-02-01T05:16:15;97757.56;;;2.50;72.43
74675;BME280;63200;48.810;12.352;2023-02-01T05:18:41;97754.25;;;2.48;72.37
74675;BME280;63200;48.810;12.352;2023-02-01T05:21:06;97759.84;;;2.47;72.63
74675;BME280;63200;48.810;12.352;2023-02-01T05:23:32;97748.69;;;2.50;71.70
74675;BME280;63200;48.810;12.352;2023-02-01T05:26:00;97720.16;;;2.25;71.44
74675;BME280;63200;48.810;12.352;2023-02-01T05:28:27;97719.69;;;2.28;71.79
74675;BME280;63200;48.810;12.352;2023-02-01T05:30:52;97758.13;;;2.53;72.06
74675;BME280;63200;48.810;12.352;2023-02-01T05:33:18;97752.03;;;2.45;72.28
74675;BME280;63200;48.810;12.352;2023-02-01T05:35:43;97714.56;;;2.27;71.73
74675;BME280;63200;48.810;12.352;2023-02-01T05:38:08;97755.34;;;2.47;72.02
74675;BME280;63200;48.810;12.352;2023-02-01T05:40:34;97750.41;;;2.44;72.40
74675;BME280;63200;48.810;12.352;2023-02-01T05:42:59;97733.28;;;2.45;71.80
74675;BME280;63200;48.810;12.352;2023-02-01T05:45:24;97720.50;;;2.47;72.30
74675;BME280;63200;48.810;12.352;2023-02-01T05:47:49;97735.97;;;2.45;72.05
74675;BME280;63200;48.810;12.352;2023-02-01T05:50:16;97730.47;;;2.40;71.58
74675;BME280;63200;48.810;12.352;2023-02-01T05:52:41;97738.97;;;2.37;72.13
74675;BME280;63200;48.810;12.352;2023-02-01T05:55:07;97734.41;;;2.38;71.71
74675;BME280;63200;48.810;12.352;2023-02-01T05:57:32;97689.56;;;2.14;71.75
74675;BME280;63200;48.810;12.352;2023-02-01T05:59:58;97715.06;;;2.36;71.63
74675;BME280;63200;48.810;12.352;2023-02-01T06:02:23;97698.16;;;2.35;71.83
74675;BME280;63200;48.810;12.352;2023-02-01T06:04:49;97706.81;;;2.37;71.79
74675;BME280;63200;48.810;12.352;2023-02-01T06:07:15;97711.13;;;2.38;72.11
74675;BME280;63200;48.810;12.352;2023-02-01T06:09:40;97717.53;;;2.37;72.13
74675;BME280;63200;48.810;12.352;2023-02-01T06:12:06;97705.81;;;2.31;71.70
74675;BME280;63200;48.810;12.352;2023-02-01T06:14:31;97703.53;;;2.35;71.81
74675;BME280;63200;48.810;12.352;2023-02-01T06:16:56;97664.31;;;2.22;71.56
74675;BME280;63200;48.810;12.352;2023-02-01T06:19:23;97702.41;;;2.43;71.19
74675;BME280;63200;48.810;12.352;2023-02-01T06:21:48;97695.16;;;2.43;71.50
74675;BME280;63200;48.810;12.352;2023-02-01T06:24:14;97685.06;;;2.45;70.68
74675;BME280;63200;48.810;12.352;2023-02-01T06:26:40;97683.78;;;2.48;71.20
74675;BME280;63200;48.810;12.352;2023-02-01T06:29:06;97703.34;;;2.48;70.92
74675;BME280;63200;48.810;12.352;2023-02-01T06:31:32;97692.19;;;2.52;70.94
74675;BME280;63200;48.810;12.352;2023-02-01T06:33:57;97657.06;;;2.41;70.69
74675;BME280;63200;48.810;12.352;2023-02-01T06:36:23;97695.97;;;2.62;70.42
74675;BME280;63200;48.810;12.352;2023-02-01T06:38:48;97674.69;;;2.49;70.78
74675;BME280;63200;48.810;12.352;2023-02-01T06:41:14;97653.22;;;2.37;70.39
74675;BME280;63200;48.810;12.352;2023-02-01T06:43:39;97708.47;;;2.69;70.73
74675;BME280;63200;48.810;12.352;2023-02-01T06:46:07;97701.00;;;2.71;70.11
74675;BME280;63200;48.810;12.352;2023-02-01T06:48:33;97699.63;;;2.80;70.24
74675;BME280;63200;48.810;12.352;2023-02-01T06:50:59;97701.50;;;2.79;70.34
74675;BME280;63200;48.810;12.352;2023-02-01T06:53:24;97704.75;;;2.81;70.33
74675;BME280;63200;48.810;12.352;2023-02-01T06:56:08;97678.63;;;2.77;70.06
74675;BME280;63200;48.810;12.352;2023-02-01T06:58:34;97684.50;;;2.97;69.33
74675;BME280;63200;48.810;12.352;2023-02-01T07:01:06;97694.66;;;2.95;70.12
74675;BME280;63200;48.810;12.352;2023-02-01T07:03:32;97703.28;;;2.97;69.60
74675;BME280;63200;48.810;12.352;2023-02-01T07:05:57;97689.28;;;2.95;69.91
74675;BME280;63200;48.810;12.352;2023-02-01T07:08:33;97686.38;;;2.97;69.75
74675;BME280;63200;48.810;12.352;2023-02-01T07:11:07;97702.72;;;3.07;69.13
74675;BME280;63200;48.810;12.352;2023-02-01T07:13:34;97677.53;;;2.96;69.31
74675;BME280;63200;48.810;12.352;2023-02-01T07:16:01;97674.72;;;2.91;69.34
74675;BME280;63200;48.810;12.352;2023-02-01T07:18:28;97686.41;;;3.09;69.29
74675;BME280;63200;48.810;12.352;2023-02-01T07:20:54;97687.44;;;3.08;69.92
74675;BME280;63200;48.810;12.352;2023-02-01T07:23:20;97685.59;;;3.08;70.10
74675;BME280;63200;48.810;12.352;2023-02-01T07:25:46;97693.75;;;3.13;69.71
74675;BME280;63200;48.810;12.352;2023-02-01T07:28:11;97694.91;;;3.06;70.52
74675;BME280;63200;48.810;12.352;2023-02-01T07:30:37;97683.13;;;3.07;70.90
74675;BME280;63200;48.810;12.352;2023-02-01T07:33:02;97678.25;;;3.15;69.43
74675;BME280;63200;48.810;12.352;2023-02-01T07:35:28;97637.59;;;2.76;71.12
74675;BME280;63200;48.810;12.352;2023-02-01T07:37:54;97687.78;;;2.99;71.30
74675;BME280;63200;48.810;12.352;2023-02-01T07:40:19;97639.69;;;2.74;70.86
74675;BME280;63200;48.810;12.352;2023-02-01T07:42:50;97652.50;;;2.72;71.55
74675;BME280;63200;48.810;12.352;2023-02-01T07:45:15;97691.38;;;2.93;72.24
74675;BME280;63200;48.810;12.352;2023-02-01T07:47:41;97701.16;;;2.88;72.32
74675;BME280;63200;48.810;12.352;2023-02-01T07:50:06;97679.78;;;2.69;72.26
74675;BME280;63200;48.810;12.352;2023-02-01T07:52:32;97689.63;;;2.87;72.94
74675;BME280;63200;48.810;12.352;2023-02-01T07:54:57;97699.75;;;2.85;72.58
74675;BME280;63200;48.810;12.352;2023-02-01T07:57:22;97689.16;;;2.90;72.46
74675;BME280;63200;48.810;12.352;2023-02-01T07:59:48;97694.19;;;2.98;72.14
74675;BME280;63200;48.810;12.352;2023-02-01T08:02:31;97651.78;;;2.65;72.33
74675;BME280;63200;48.810;12.352;2023-02-01T08:04:57;97699.19;;;2.95;72.69
74675;BME280;63200;48.810;12.352;2023-02-01T08:07:22;97699.19;;;2.95;72.47
74675;BME280;63200;48.810;12.352;2023-02-01T08:09:47;97682.72;;;2.79;72.58
74675;BME280;63200;48.810;12.352;2023-02-01T08:12:13;97723.94;;;2.97;73.25
74675;BME280;63200;48.810;12.352;2023-02-01T08:14:38;97718.78;;;2.95;72.87
74675;BME280;63200;48.810;12.352;2023-02-01T08:17:06;97727.88;;;2.94;73.63
74675;BME280;63200;48.810;12.352;2023-02-01T08:19:31;97740.69;;;2.92;73.50
74675;BME280;63200;48.810;12.352;2023-02-01T08:21:56;97736.03;;;2.88;73.68
74675;BME280;63200;48.810;12.352;2023-02-01T08:24:22;97732.97;;;2.84;74.58
74675;BME280;63200;48.810;12.352;2023-02-01T08:26:47;97730.38;;;2.77;74.90
74675;BME280;63200;48.810;12.352;2023-02-01T08:29:12;97730.47;;;2.71;76.23
74675;BME280;63200;48.810;12.352;2023-02-01T08:31:39;97741.53;;;2.62;75.50
74675;BME280;63200;48.810;12.352;2023-02-01T08:34:08;97753.50;;;2.60;76.45
74675;BME280;63200;48.810;12.352;2023-02-01T08:36:34;97746.97;;;2.56;75.89
74675;BME280;63200;48.810;12.352;2023-02-01T08:39:00;97748.47;;;2.52;76.53
74675;BME280;63200;48.810;12.352;2023-02-01T08:41:28;97751.06;;;2.58;77.00
74675;BME280;63200;48.810;12.352;2023-02-01T08:43:54;97738.28;;;2.42;76.59
74675;BME280;63200;48.810;12.352;2023-02-01T08:46:20;97751.25;;;2.45;76.82
74675;BME280;63200;48.810;12.352;2023-02-01T08:48:47;97770.94;;;2.50;76.63
74675;BME280;63200;48.810;12.352;2023-02-01T08:51:14;97767.53;;;2.43;77.64
74675;BME280;63200;48.810;12.352;2023-02-01T08:53:40;97729.44;;;2.23;77.77
74675;BME280;63200;48.810;12.352;2023-02-01T08:56:07;97772.06;;;2.24;77.65
74675;BME280;63200;48.810;12.352;2023-02-01T08:58:32;97763.94;;;1.94;78.00
74675;BME280;63200;48.810;12.352;2023-02-01T09:01:03;97766.78;;;1.99;79.04
74675;BME280;63200;48.810;12.352;2023-02-01T09:03:29;97763.50;;;1.97;79.24
74675;BME280;63200;48.810;12.352;2023-02-01T09:06:02;97761.59;;;2.04;79.26
74675;BME280;63200;48.810;12.352;2023-02-01T09:08:28;97733.00;;;1.79;79.69
74675;BME280;63200;48.810;12.352;2023-02-01T09:11:01;97759.94;;;2.03;79.02
74675;BME280;63200;48.810;12.352;2023-02-01T09:13:27;97784.59;;;2.12;78.78
74675;BME280;63200;48.810;12.352;2023-02-01T09:15:53;97776.00;;;2.03;79.23
74675;BME280;63200;48.810;12.352;2023-02-01T09:18:18;97785.97;;;1.96;78.79
74675;BME280;63200;48.810;12.352;2023-02-01T09:20:44;97771.09;;;2.00;79.29
74675;BME280;63200;48.810;12.352;2023-02-01T09:23:09;97763.06;;;2.00;79.84
74675;BME280;63200;48.810;12.352;2023-02-01T09:25:36;97756.31;;;1.97;79.15
74675;BME280;63200;48.810;12.352;2023-02-01T09:28:02;97744.19;;;1.95;79.84
74675;BME280;63200;48.810;12.352;2023-02-01T09:30:31;97717.97;;;1.97;78.59
74675;BME280;63200;48.810;12.352;2023-02-01T09:32:56;97720.50;;;1.92;79.62
74675;BME280;63200;48.810;12.352;2023-02-01T09:35:21;97713.00;;;1.82;79.39
74675;BME280;63200;48.810;12.352;2023-02-01T09:37:47;97753.31;;;2.06;79.38
74675;BME280;63200;48.810;12.352;2023-02-01T09:40:16;97739.13;;;2.05;79.42
74675;BME280;63200;48.810;12.352;2023-02-01T09:43:16;97773.13;;;2.23;79.24
74675;BME280;63200;48.810;12.352;2023-02-01T09:46:06;97776.53;;;2.49;78.85
74675;BME280;63200;48.810;12.352;2023-02-01T09:48:39;97729.75;;;2.14;77.91
74675;BME280;63200;48.810;12.352;2023-02-01T09:51:13;97743.84;;;2.40;78.72
74675;BME280;63200;48.810;12.352;2023-02-01T09:53:43;97782.84;;;2.55;79.04
74675;BME280;63200;48.810;12.352;2023-02-01T09:56:14;97773.06;;;2.79;78.09
74675;BME280;63200;48.810;12.352;2023-02-01T09:59:01;97769.78;;;3.07;77.68
74675;BME280;63200;48.810;12.352;2023-02-01T10:01:29;97771.91;;;3.17;77.07
74675;BME280;63200;48.810;12.352;2023-02-01T10:04:08;97758.31;;;3.00;77.28
74675;BME280;63200;48.810;12.352;2023-02-01T10:09:44;97776.97;;;3.37;76.46
74675;BME280;63200;48.810;12.352;2023-02-01T10:25:55;97761.47;;;3.39;76.37
74675;BME280;63200;48.810;12.352;2023-02-01T10:28:21;97755.50;;;3.37;75.65
74675;BME280;63200;48.810;12.352;2023-02-01T10:30:52;97754.91;;;3.35;75.09
74675;BME280;63200;48.810;12.352;2023-02-01T10:33:26;97755.38;;;3.44;74.97
74675;BME280;63200;48.810;12.352;2023-02-01T10:36:04;97742.56;;;3.46;74.06
74675;BME280;63200;48.810;12.352;2023-02-01T10:38:31;97774.41;;;3.42;74.90
74675;BME280;63200;48.810;12.352;2023-02-01T10:41:23;97760.41;;;3.40;74.63
74675;BME280;63200;48.810;12.352;2023-02-01T10:43:53;97760.28;;;3.35;74.33
74675;BME280;63200;48.810;12.352;2023-02-01T10:46:21;97718.13;;;3.12;74.50
74675;BME280;63200;48.810;12.352;2023-02-01T10:48:48;97761.00;;;3.42;74.42
74675;BME280;63200;48.810;12.352;2023-02-01T10:51:20;97755.50;;;3.49;74.20
74675;BME280;63200;48.810;12.352;2023-02-01T10:54:00;97752.59;;;3.62;73.60
74675;BME280;63200;48.810;12.352;2023-02-01T10:56:28;97745.50;;;3.68;74.32
74675;BME280;63200;48.810;12.352;2023-02-01T10:59:05;97710.59;;;3.56;73.75
74675;BME280;63200;48.810;12.352;2023-02-01T11:01:37;97738.13;;;3.75;72.24
74675;BME280;63200;48.810;12.352;2023-02-01T11:04:07;97761.03;;;3.78;72.85
74675;BME280;63200;48.810;12.352;2023-02-01T11:06:39;97748.44;;;3.78;72.64
74675;BME280;63200;48.810;12.352;2023-02-01T11:11:30;97756.38;;;3.73;72.96
74675;BME280;63200;48.810;12.352;2023-02-01T11:14:04;97740.38;;;3.55;72.26
74675;BME280;63200;48.810;12.352;2023-02-01T11:16:37;97768.38;;;3.71;73.23
74675;BME280;63200;48.810;12.352;2023-02-01T11:19:04;97747.94;;;3.70;72.70
74675;BME280;63200;48.810;12.352;2023-02-01T11:21:31;97773.97;;;3.69;73.11
74675;BME280;63200;48.810;12.352;2023-02-01T11:24:02;97774.34;;;3.84;71.97
74675;BME280;63200;48.810;12.352;2023-02-01T11:26:28;97763.34;;;3.74;72.04
74675;BME280;63200;48.810;12.352;2023-02-01T11:29:01;97773.53;;;3.96;73.05
74675;BME280;63200;48.810;12.352;2023-02-01T11:31:28;97782.38;;;4.20;71.91
74675;BME280;63200;48.810;12.352;2023-02-01T11:34:00;97784.69;;;4.16;71.30
74675;BME280;63200;48.810;12.352;2023-02-01T11:36:31;97760.09;;;3.84;70.55
74675;BME280;63200;48.810;12.352;2023-02-01T11:39:30;97786.34;;;3.94;72.34
74675;BME280;63200;48.810;12.352;2023-02-01T11:42:13;97779.56;;;3.79;72.30
74675;BME280;63200;48.810;12.352;2023-02-01T11:44:42;97748.88;;;3.63;72.29
74675;BME280;63200;48.810;12.352;2023-02-01T11:47:20;97774.44;;;3.90;71.97
74675;BME280;63200;48.810;12.352;2023-02-01T11:49:47;97770.72;;;3.91;71.51
74675;BME280;63200;48.810;12.352;2023-02-01T11:57:41;97771.97;;;4.24;70.80
74675;BME280;63200;48.810;12.352;2023-02-01T12:05:50;97768.38;;;4.18;71.75
74675;BME280;63200;48.810;12.352;2023-02-01T12:08:28;97762.53;;;3.97;71.79
74675;BME280;63200;48.810;12.352;2023-02-01T12:11:19;97751.00;;;3.73;72.58
74675;BME280;63200;48.810;12.352;2023-02-01T12:13:57;97749.91;;;3.62;72.29
74675;BME280;63200;48.810;12.352;2023-02-01T12:19:21;97757.28;;;3.67;72.72
74675;BME280;63200;48.810;12.352;2023-02-01T12:27:52;97749.09;;;3.62;71.28
74675;BME280;63200;48.810;12.352;2023-02-01T12:43:16;97734.41;;;3.53;71.55
74675;BME280;63200;48.810;12.352;2023-02-01T12:45:54;97716.88;;;3.38;71.68
74675;BME280;63200;48.810;12.352;2023-02-01T12:51:13;97736.16;;;3.47;73.02
74675;BME280;63200;48.810;12.352;2023-02-01T12:56:26;97698.66;;;3.16;72.84
74675;BME280;63200;48.810;12.352;2023-02-01T12:58:56;97725.53;;;3.40;72.72
74675;BME280;63200;48.810;12.352;2023-02-01T13:04:13;97728.34;;;3.45;73.18
74675;BME280;63200;48.810;12.352;2023-02-01T13:06:45;97717.38;;;3.47;73.14
74675;BME280;63200;48.810;12.352;2023-02-01T13:09:28;97703.72;;;3.60;72.30
74675;BME280;63200;48.810;12.352;2023-02-01T13:11:58;97703.22;;;3.63;72.12
74675;BME280;63200;48.810;12.352;2023-02-01T13:14:41;97708.72;;;3.57;71.73
74675;BME280;63200;48.810;12.352;2023-02-01T13:17:15;97713.28;;;3.56;72.02
74675;BME280;63200;48.810;12.352;2023-02-01T13:22:46;97716.88;;;3.38;72.15
74675;BME280;63200;48.810;12.352;2023-02-01T13:25:31;97695.88;;;3.35;72.24
74675;BME280;63200;48.810;12.352;2023-02-01T13:28:04;97692.16;;;3.36;71.95
74675;BME280;63200;48.810;12.352;2023-02-01T13:30:42;97710.94;;;3.36;72.14
74675;BME280;63200;48.810;12.352;2023-02-01T13:38:44;97712.09;;;3.40;71.88
74675;BME280;63200;48.810;12.352;2023-02-01T13:44:08;97716.63;;;3.40;71.15
74675;BME280;63200;48.810;12.352;2023-02-01T13:46:40;97723.78;;;3.46;71.41
74675;BME280;63200;48.810;12.352;2023-02-01T13:49:21;97721.34;;;3.56;70.53
74675;BME280;63200;48.810;12.352;2023-02-01T13:51:50;97714.09;;;3.57;69.75
74675;BME280;63200;48.810;12.352;2023-02-01T13:54:39;97715.84;;;3.63;70.19
74675;BME280;63200;48.810;12.352;2023-02-01T14:00:06;97700.66;;;3.80;70.75
74675;BME280;63200;48.810;12.352;2023-02-01T14:05:12;97719.94;;;3.77;68.50
74675;BME280;63200;48.810;12.352;2023-02-01T14:13:37;97710.25;;;3.53;68.74
74675;BME280;63200;48.810;12.352;2023-02-01T14:23:42;97724.00;;;3.44;69.54
74675;BME280;63200;48.810;12.352;2023-02-01T14:26:10;97724.13;;;3.49;69.15
74675;BME280;63200;48.810;12.352;2023-02-01T14:28:41;97729.13;;;3.46;69.50
74675;BME280;63200;48.810;12.352;2023-02-01T14:31:16;97720.72;;;3.42;70.13
74675;BME280;63200;48.810;12.352;2023-02-01T14:33:42;97680.31;;;3.13;70.50
74675;BME280;63200;48.810;12.352;2023-02-01T14:36:13;97710.94;;;3.36;69.51
74675;BME280;63200;48.810;12.352;2023-02-01T14:38:47;97722.00;;;3.40;69.34
74675;BME280;63200;48.810;12.352;2023-02-01T14:41:24;97710.94;;;3.36;70.02
74675;BME280;63200;48.810;12.352;2023-02-01T14:49:35;97691.44;;;3.29;69.38
74675;BME280;63200;48.810;12.352;2023-02-01T14:52:04;97681.88;;;3.33;68.38
74675;BME280;63200;48.810;12.352;2023-02-01T14:54:31;97658.19;;;3.18;68.06
74675;BME280;63200;48.810;12.352;2023-02-01T14:56:57;97718.03;;;3.42;68.40
74675;BME280;63200;48.810;12.352;2023-02-01T14:59:25;97702.06;;;3.47;66.46
74675;BME280;63200;48.810;12.352;2023-02-01T15:01:55;97698.34;;;3.48;68.07
74675;BME280;63200;48.810;12.352;2023-02-01T15:04:25;97700.91;;;3.43;68.00
74675;BME280;63200;48.810;12.352;2023-02-01T15:09:33;97697.63;;;3.41;68.08
74675;BME280;63200;48.810;12.352;2023-02-01T15:14:38;97706.13;;;3.38;67.66
74675;BME280;63200;48.810;12.352;2023-02-01T15:17:22;97690.63;;;3.28;68.13
74675;BME280;63200;48.810;12.352;2023-02-01T15:19:59;97701.81;;;3.37;68.19
74675;BME280;63200;48.810;12.352;2023-02-01T15:22:26;97670.31;;;3.09;68.61
74675;BME280;63200;48.810;12.352;2023-02-01T15:24:57;97703.09;;;3.34;68.32